sensor_id;sensor_type;location;lat;lon;timestamp;pressure;altitude;pressure_sealevel;temperature;humidity
15308;BME280;7755;52.208;6.964;2023-01-29T00:03:39;102604.44;;;1.95;97.96
15308;BME280;7755;52.208;6.964;2023-01-29T00:07:44;102601.06;;;1.92;98.42
15308;BME280;7755;52.208;6.964;2023-01-29T00:11:49;102598.38;;;1.92;98.27
15308;BME280;7755;52.208;6.964;2023-01-29T00:15:52;102591.78;;;1.97;98.31
15308;BME280;7755;52.208;6.964;2023-01-29T00:19:56;102590.91;;;1.96;98.00
15308;BME280;7755;52.208;6.964;2023-01-29T00:23:59;102580.75;;;2.00;98.04
15308;BME280;7755;52.208;6.964;2023-01-29T00:28:04;102569.72;;;2.03;98.47
15308;BME280;7755;52.208;6.964;2023-01-29T00:32:07;102576.81;;;2.04;97.87
15308;BME280;7755;52.208;6.964;2023-01-29T00:36:13;102578.06;;;2.00;98.39
15308;BME280;7755;52.208;6.964;2023-01-29T00:40:16;102564.81;;;1.98;98.06
15308;BME280;7755;52.208;6.964;2023-01-29T00:44:22;102555.31;;;1.94;98.68
15308;BME280;7755;52.208;6.964;2023-01-29T00:48:43;102545.44;;;1.95;98.25
15308;BME280;7755;52.208;6.964;2023-01-29T00:52:46;102537.69;;;1.91;98.75
15308;BME280;7755;52.208;6.964;2023-01-29T00:56:54;102529.19;;;1.96;99.15
15308;BME280;7755;52.208;6.964;2023-01-29T01:01:03;102535.44;;;2.06;98.95
15308;BME280;7755;52.208;6.964;2023-01-29T01:05:07;102529.38;;;2.14;98.42
15308;BME280;7755;52.208;6.964;2023-01-29T01:09:14;102534.75;;;2.14;98.28
15308;BME280;7755;52.208;6.964;2023-01-29T01:13:35;102537.72;;;2.11;98.94
15308;BME280;7755;52.208;6.964;2023-01-29T01:17:40;102539.66;;;2.09;98.62
15308;BME280;7755;52.208;6.964;2023-01-29T01:21:43;102537.13;;;2.07;99.01
15308;BME280;7755;52.208;6.964;2023-01-29T01:25:48;102534.75;;;2.14;98.96
15308;BME280;7755;52.208;6.964;2023-01-29T01:29:52;102528.94;;;2.09;98.72
15308;BME280;7755;52.208;6.964;2023-01-29T01:33:58;102533.47;;;2.08;98.77
15308;BME280;7755;52.208;6.964;2023-01-29T01:38:02;102535.44;;;2.06;98.66
15308;BME280;7755;52.208;6.964;2023-01-29T01:42:08;102525.56;;;2.07;99.07
15308;BME280;7755;52.208;6.964;2023-01-29T01:46:14;102530.22;;;2.05;99.30
15308;BME280;7755;52.208;6.964;2023-01-29T01:50:24;102535.72;;;2.03;99.13
15308;BME280;7755;52.208;6.964;2023-01-29T01:54:31;102533.06;;;2.03;99.69
15308;BME280;7755;52.208;6.964;2023-01-29T01:58:43;102538.41;;;2.03;99.60
15308;BME280;7755;52.208;6.964;2023-01-29T02:02:47;102537.13;;;2.07;99.84
15308;BME280;7755;52.208;6.964;2023-01-29T02:07:12;102532.19;;;2.03;100.00
15308;BME280;7755;52.208;6.964;2023-01-29T02:11:33;102528.09;;;2.08;100.00
15308;BME280;7755;52.208;6.964;2023-01-29T02:15:37;102526.25;;;2.09;100.00
15308;BME280;7755;52.208;6.964;2023-01-29T02:19:46;102514.28;;;2.13;100.00
15308;BME280;7755;52.208;6.964;2023-01-29T02:24:16;102530.38;;;2.13;100.00
15308;BME280;7755;52.208;6.964;2023-01-29T02:28:31;102535.72;;;2.13;100.00
15308;BME280;7755;52.208;6.964;2023-01-29T02:32:40;102529.22;;;2.15;100.00
15308;BME280;7755;52.208;6.964;2023-01-29T02:37:03;102526.00;;;2.12;100.00
15308;BME280;7755;52.208;6.964;2023-01-29T02:41:14;102534.19;;;2.10;100.00
15308;BME280;7755;52.208;6.964;2023-01-29T02:45:22;102539.81;;;2.07;100.00
15308;BME280;7755;52.208;6.964;2023-01-29T02:49:33;102551.00;;;2.12;100.00
15308;BME280;7755;52.208;6.964;2023-01-29T02:53:43;102565.69;;;2.18;100.00
15308;BME280;7755;52.208;6.964;2023-01-29T02:58:16;102566.94;;;2.14;100.00
15308;BME280;7755;52.208;6.964;2023-01-29T03:02:39;102566.09;;;2.13;100.00
15308;BME280;7755;52.208;6.964;2023-01-29T03:06:48;102557.91;;;2.15;100.00
15308;BME280;7755;52.208;6.964;2023-01-29T03:11:02;102556.19;;;2.14;100.00
15308;BME280;7755;52.208;6.964;2023-01-29T03:15:08;102557.06;;;2.14;100.00
15308;BME280;7755;52.208;6.964;2023-01-29T03:19:34;102558.88;;;2.14;100.00
15308;BME280;7755;52.208;6.964;2023-01-29T03:23:48;102538.41;;;2.13;100.00
15308;BME280;7755;52.208;6.964;2023-01-29T03:28:11;102533.19;;;2.11;100.00
15308;BME280;7755;52.208;6.964;2023-01-29T03:32:33;102528.94;;;2.09;100.00
15308;BME280;7755;52.208;6.964;2023-01-29T03:36:43;102510.03;;;2.01;100.00
15308;BME280;7755;52.208;6.964;2023-01-29T03:40:54;102497.31;;;2.03;100.00
15308;BME280;7755;52.208;6.964;2023-01-29T03:45:05;102496.06;;;1.97;100.00
15308;BME280;7755;52.208;6.964;2023-01-29T03:49:21;102492.94;;;1.92;100.00
15308;BME280;7755;52.208;6.964;2023-01-29T03:53:32;102493.50;;;1.86;100.00
15308;BME280;7755;52.208;6.964;2023-01-29T03:57:44;102490.13;;;1.84;100.00
15308;BME280;7755;52.208;6.964;2023-01-29T04:01:53;102487.69;;;1.81;100.00
15308;BME280;7755;52.208;6.964;2023-01-29T04:06:04;102486.00;;;1.80;100.00
15308;BME280;7755;52.208;6.964;2023-01-29T04:10:22;102487.53;;;1.82;100.00
15308;BME280;7755;52.208;6.964;2023-01-29T04:14:27;102469.63;;;1.83;100.00
15308;BME280;7755;52.208;6.964;2023-01-29T04:18:31;102454.25;;;1.85;100.00
15308;BME280;7755;52.208;6.964;2023-01-29T04:22:44;102449.75;;;1.85;100.00
15308;BME280;7755;52.208;6.964;2023-01-29T04:26:59;102444.22;;;1.87;100.00
15308;BME280;7755;52.208;6.964;2023-01-29T04:31:07;102446.06;;;1.86;100.00
15308;BME280;7755;52.208;6.964;2023-01-29T04:35:25;102441.56;;;1.87;100.00
15308;BME280;7755;52.208;6.964;2023-01-29T04:39:36;102444.22;;;1.87;100.00
15308;BME280;7755;52.208;6.964;2023-01-29T04:43:49;102428.44;;;1.84;100.00
15308;BME280;7755;52.208;6.964;2023-01-29T04:48:04;102431.81;;;1.86;100.00
15308;BME280;7755;52.208;6.964;2023-01-29T04:52:18;102433.22;;;1.80;100.00
15308;BME280;7755;52.208;6.964;2023-01-29T04:56:29;102431.38;;;1.81;100.00
15308;BME280;7755;52.208;6.964;2023-01-29T05:00:40;102432.22;;;1.81;100.00
15308;BME280;7755;52.208;6.964;2023-01-29T05:04:45;102433.91;;;1.82;100.00
15308;BME280;7755;52.208;6.964;2023-01-29T05:08:50;102435.63;;;1.83;100.00
15308;BME280;7755;52.208;6.964;2023-01-29T05:12:58;102437.44;;;1.83;100.00
15308;BME280;7755;52.208;6.964;2023-01-29T05:17:07;102438.44;;;1.82;100.00
15308;BME280;7755;52.208;6.964;2023-01-29T05:21:12;102438.16;;;1.85;100.00
15308;BME280;7755;52.208;6.964;2023-01-29T05:25:21;102432.94;;;1.83;100.00
15308;BME280;7755;52.208;6.964;2023-01-29T05:29:24;102439.56;;;1.79;100.00
15308;BME280;7755;52.208;6.964;2023-01-29T05:33:30;102432.09;;;1.73;100.00
15308;BME280;7755;52.208;6.964;2023-01-29T05:37:33;102428.56;;;1.73;100.00
15308;BME280;7755;52.208;6.964;2023-01-29T05:41:36;102438.00;;;1.67;100.00
15308;BME280;7755;52.208;6.964;2023-01-29T05:45:39;102463.72;;;1.70;100.00
15308;BME280;7755;52.208;6.964;2023-01-29T05:49:44;102459.75;;;1.74;100.00
15308;BME280;7755;52.208;6.964;2023-01-29T05:53:46;102442.13;;;1.71;100.00
15308;BME280;7755;52.208;6.964;2023-01-29T05:57:49;102436.31;;;1.66;100.00
15308;BME280;7755;52.208;6.964;2023-01-29T06:01:53;102420.53;;;1.63;100.00
15308;BME280;7755;52.208;6.964;2023-01-29T06:06:00;102413.19;;;1.65;100.00
15308;BME280;7755;52.208;6.964;2023-01-29T06:10:03;102419.78;;;1.61;100.00
15308;BME280;7755;52.208;6.964;2023-01-29T06:14:06;102416.25;;;1.60;100.00
15308;BME280;7755;52.208;6.964;2023-01-29T06:18:10;102417.56;;;1.66;100.00
15308;BME280;7755;52.208;6.964;2023-01-29T06:22:14;102420.94;;;1.68;100.00
15308;BME280;7755;52.208;6.964;2023-01-29T06:26:17;102425.88;;;1.73;100.00
15308;BME280;7755;52.208;6.964;2023-01-29T06:30:20;102428.41;;;1.74;100.00
15308;BME280;7755;52.208;6.964;2023-01-29T06:34:23;102429.56;;;1.72;100.00
15308;BME280;7755;52.208;6.964;2023-01-29T06:38:28;102411.47;;;1.74;100.00
15308;BME280;7755;52.208;6.964;2023-01-29T06:42:33;102408.25;;;1.70;100.00
15308;BME280;7755;52.208;6.964;2023-01-29T06:46:36;102423.06;;;1.74;100.00
15308;BME280;7755;52.208;6.964;2023-01-29T06:50:40;102424.75;;;1.75;100.00
15308;BME280;7755;52.208;6.964;2023-01-29T06:54:44;102424.03;;;1.73;100.00
15308;BME280;7755;52.208;6.964;2023-01-29T06:58:48;102406.81;;;1.76;100.00
15308;BME280;7755;52.208;6.964;2023-01-29T07:02:51;102423.06;;;1.74;100.00
15308;BME280;7755;52.208;6.964;2023-01-29T07:06:54;102411.78;;;1.71;100.00
15308;BME280;7755;52.208;6.964;2023-01-29T07:11:01;102410.63;;;1.73;100.00
15308;BME280;7755;52.208;6.964;2023-01-29T07:15:05;102413.91;;;1.77;100.00
15308;BME280;7755;52.208;6.964;2023-01-29T07:19:08;102415.72;;;1.76;100.00
15308;BME280;7755;52.208;6.964;2023-01-29T07:23:12;102419.53;;;1.74;100.00
15308;BME280;7755;52.208;6.964;2023-01-29T07:27:17;102421.66;;;1.80;100.00
15308;BME280;7755;52.208;6.964;2023-01-29T07:31:20;102418.13;;;1.79;100.00
15308;BME280;7755;52.208;6.964;2023-01-29T07:35:24;102406.25;;;1.82;100.00
15308;BME280;7755;52.208;6.964;2023-01-29T07:39:28;102396.53;;;1.81;100.00
15308;BME280;7755;52.208;6.964;2023-01-29T07:43:32;102406.81;;;1.76;100.00
15308;BME280;7755;52.208;6.964;2023-01-29T07:47:36;102407.41;;;1.79;100.00
15308;BME280;7755;52.208;6.964;2023-01-29T07:51:39;102412.06;;;1.77;100.00
15308;BME280;7755;52.208;6.964;2023-01-29T07:55:43;102397.66;;;1.78;100.00
15308;BME280;7755;52.208;6.964;2023-01-29T07:59:47;102385.25;;;1.77;100.00
15308;BME280;7755;52.208;6.964;2023-01-29T08:03:50;102388.47;;;1.81;100.00
15308;BME280;7755;52.208;6.964;2023-01-29T08:07:54;102380.44;;;1.81;100.00
15308;BME280;7755;52.208;6.964;2023-01-29T08:12:07;102369.00;;;1.79;100.00
15308;BME280;7755;52.208;6.964;2023-01-29T08:16:11;102346.16;;;1.84;100.00
15308;BME280;7755;52.208;6.964;2023-01-29T08:20:15;102340.34;;;1.89;100.00
15308;BME280;7755;52.208;6.964;2023-01-29T08:24:19;102336.13;;;1.86;100.00
15308;BME280;7755;52.208;6.964;2023-01-29T08:28:22;102323.97;;;1.92;100.00
15308;BME280;7755;52.208;6.964;2023-01-29T08:32:27;102312.94;;;1.95;100.00
15308;BME280;7755;52.208;6.964;2023-01-29T08:36:30;102330.59;;;1.98;100.00
15308;BME280;7755;52.208;6.964;2023-01-29T08:40:34;102337.81;;;1.97;100.00
15308;BME280;7755;52.208;6.964;2023-01-29T08:44:37;102345.97;;;2.05;100.00
15308;BME280;7755;52.208;6.964;2023-01-29T08:48:41;102343.41;;;2.13;100.00
15308;BME280;7755;52.208;6.964;2023-01-29T08:52:44;102346.25;;;2.12;100.00
15308;BME280;7755;52.208;6.964;2023-01-29T08:56:47;102333.38;;;2.15;100.00
15308;BME280;7755;52.208;6.964;2023-01-29T09:00:50;102331.00;;;2.12;100.00
15308;BME280;7755;52.208;6.964;2023-01-29T09:04:54;102346.78;;;2.15;100.00
15308;BME280;7755;52.208;6.964;2023-01-29T09:08:57;102343.09;;;2.16;100.00
15308;BME280;7755;52.208;6.964;2023-01-29T09:13:01;102350.56;;;2.23;100.00
15308;BME280;7755;52.208;6.964;2023-01-29T09:17:04;102345.94;;;2.25;100.00
15308;BME280;7755;52.208;6.964;2023-01-29T09:21:08;102338.41;;;2.28;100.00
15308;BME280;7755;52.208;6.964;2023-01-29T09:25:12;102350.25;;;2.35;100.00
15308;BME280;7755;52.208;6.964;2023-01-29T09:29:16;102344.75;;;2.37;100.00
15308;BME280;7755;52.208;6.964;2023-01-29T09:33:19;102355.03;;;2.41;100.00
15308;BME280;7755;52.208;6.964;2023-01-29T09:37:24;102347.69;;;2.43;100.00
15308;BME280;7755;52.208;6.964;2023-01-29T09:41:36;102337.81;;;2.44;99.56
15308;BME280;7755;52.208;6.964;2023-01-29T09:45:52;102338.78;;;2.43;100.00
15308;BME280;7755;52.208;6.964;2023-01-29T09:49:59;102337.50;;;2.47;100.00
15308;BME280;7755;52.208;6.964;2023-01-29T09:54:13;102340.72;;;2.51;100.00
15308;BME280;7755;52.208;6.964;2023-01-29T09:58:21;102341.44;;;2.53;99.77
15308;BME280;7755;52.208;6.964;2023-01-29T10:02:44;102329.16;;;2.50;99.65
15308;BME280;7755;52.208;6.964;2023-01-29T10:07:05;102323.94;;;2.49;99.97
15308;BME280;7755;52.208;6.964;2023-01-29T10:11:20;102314.84;;;2.59;99.95
15308;BME280;7755;52.208;6.964;2023-01-29T10:15:39;102302.13;;;2.61;98.86
15308;BME280;7755;52.208;6.964;2023-01-29T10:20:02;102299.16;;;2.64;99.63
15308;BME280;7755;52.208;6.964;2023-01-29T10:24:18;102302.13;;;2.61;98.30
15308;BME280;7755;52.208;6.964;2023-01-29T10:28:30;102300.13;;;2.63;98.57
15308;BME280;7755;52.208;6.964;2023-01-29T10:32:36;102288.09;;;2.67;98.56
15308;BME280;7755;52.208;6.964;2023-01-29T10:36:42;102281.44;;;2.71;98.21
15308;BME280;7755;52.208;6.964;2023-01-29T10:40:53;102280.22;;;2.66;97.71
15308;BME280;7755;52.208;6.964;2023-01-29T10:45:14;102276.81;;;2.64;98.10
15308;BME280;7755;52.208;6.964;2023-01-29T10:49:34;102270.59;;;2.63;97.93
15308;BME280;7755;52.208;6.964;2023-01-29T10:53:47;102262.78;;;2.70;98.29
15308;BME280;7755;52.208;6.964;2023-01-29T10:58:01;102261.81;;;2.71;98.05
15308;BME280;7755;52.208;6.964;2023-01-29T11:02:14;102246.38;;;2.73;97.95
15308;BME280;7755;52.208;6.964;2023-01-29T11:06:22;102239.25;;;2.82;97.66
15308;BME280;7755;52.208;6.964;2023-01-29T11:10:26;102241.41;;;2.78;97.14
15308;BME280;7755;52.208;6.964;2023-01-29T11:14:36;102227.50;;;2.83;98.00
15308;BME280;7755;52.208;6.964;2023-01-29T11:19:04;102221.13;;;2.84;97.69
15308;BME280;7755;52.208;6.964;2023-01-29T11:23:24;102213.78;;;2.86;97.98
15308;BME280;7755;52.208;6.964;2023-01-29T11:27:32;102211.94;;;2.86;97.63
15308;BME280;7755;52.208;6.964;2023-01-29T11:31:37;102209.66;;;2.91;98.00
15308;BME280;7755;52.208;6.964;2023-01-29T11:35:42;102186.16;;;2.93;97.95
15308;BME280;7755;52.208;6.964;2023-01-29T11:39:45;102181.47;;;2.95;98.31
15308;BME280;7755;52.208;6.964;2023-01-29T11:43:48;102180.84;;;3.01;98.58
15308;BME280;7755;52.208;6.964;2023-01-29T11:47:53;102177.47;;;2.99;98.28
15308;BME280;7755;52.208;6.964;2023-01-29T11:52:00;102169.94;;;3.03;98.43
15308;BME280;7755;52.208;6.964;2023-01-29T11:56:15;102163.72;;;3.03;98.18
15308;BME280;7755;52.208;6.964;2023-01-29T12:00:21;102161.03;;;3.03;98.11
15308;BME280;7755;52.208;6.964;2023-01-29T12:04:26;102159.03;;;3.05;98.30
15308;BME280;7755;52.208;6.964;2023-01-29T12:08:33;102146.47;;;3.05;98.37
15308;BME280;7755;52.208;6.964;2023-01-29T12:12:40;102131.88;;;3.08;98.13
15308;BME280;7755;52.208;6.964;2023-01-29T12:16:49;102120.13;;;3.09;97.66
15308;BME280;7755;52.208;6.964;2023-01-29T12:20:57;102120.66;;;3.12;97.74
15308;BME280;7755;52.208;6.964;2023-01-29T12:25:06;102126.88;;;3.13;97.50
15308;BME280;7755;52.208;6.964;2023-01-29T12:29:22;102105.84;;;3.08;98.35
15308;BME280;7755;52.208;6.964;2023-01-29T12:33:30;102109.22;;;3.10;97.93
15308;BME280;7755;52.208;6.964;2023-01-29T12:37:44;102100.31;;;3.10;97.73
15308;BME280;7755;52.208;6.964;2023-01-29T12:41:56;102088.88;;;3.08;98.21
15308;BME280;7755;52.208;6.964;2023-01-29T12:46:09;102081.34;;;3.11;98.21
15308;BME280;7755;52.208;6.964;2023-01-29T12:50:19;102086.03;;;3.09;97.71
15308;BME280;7755;52.208;6.964;2023-01-29T12:54:30;102073.44;;;3.10;98.92
15308;BME280;7755;52.208;6.964;2023-01-29T12:58:40;102048.97;;;3.13;98.79
15308;BME280;7755;52.208;6.964;2023-01-29T13:02:49;102056.25;;;3.03;98.40
15308;BME280;7755;52.208;6.964;2023-01-29T13:07:04;102049.75;;;3.05;99.13
15308;BME280;7755;52.208;6.964;2023-01-29T13:11:17;102046.72;;;3.08;99.14
15308;BME280;7755;52.208;6.964;2023-01-29T13:15:28;102041.19;;;3.10;98.67
15308;BME280;7755;52.208;6.964;2023-01-29T13:19:35;102036.16;;;3.07;98.72
15308;BME280;7755;52.208;6.964;2023-01-29T13:23:44;102029.78;;;3.08;99.17
15308;BME280;7755;52.208;6.964;2023-01-29T13:27:49;102017.34;;;3.07;99.39
15308;BME280;7755;52.208;6.964;2023-01-29T13:31:55;102008.94;;;3.10;99.44
15308;BME280;7755;52.208;6.964;2023-01-29T13:35:59;102011.16;;;3.14;99.71
15308;BME280;7755;52.208;6.964;2023-01-29T13:40:04;101991.81;;;3.11;99.12
15308;BME280;7755;52.208;6.964;2023-01-29T13:44:22;101979.41;;;3.10;99.41
15308;BME280;7755;52.208;6.964;2023-01-29T13:48:28;101985.28;;;3.05;99.75
15308;BME280;7755;52.208;6.964;2023-01-29T13:52:36;101971.97;;;3.04;100.00
15308;BME280;7755;52.208;6.964;2023-01-29T13:56:44;101973.34;;;3.08;100.00
15308;BME280;7755;52.208;6.964;2023-01-29T14:00:50;101967.78;;;3.01;100.00
15308;BME280;7755;52.208;6.964;2023-01-29T14:14:50;101979.91;;;3.05;100.00
15308;BME280;7755;52.208;6.964;2023-01-29T14:19:02;101974.66;;;3.04;100.00
15308;BME280;7755;52.208;6.964;2023-01-29T14:23:07;101975.50;;;3.04;100.00
15308;BME280;7755;52.208;6.964;2023-01-29T14:27:23;101966.47;;;3.05;100.00
15308;BME280;7755;52.208;6.964;2023-01-29T14:31:39;101960.56;;;3.01;100.00
15308;BME280;7755;52.208;6.964;2023-01-29T14:35:48;101949.81;;;3.01;100.00
15308;BME280;7755;52.208;6.964;2023-01-29T14:39:54;101953.34;;;3.02;100.00
15308;BME280;7755;52.208;6.964;2023-01-29T14:48:45;101948.63;;;3.04;100.00
15308;BME280;7755;52.208;6.964;2023-01-29T14:52:50;101944.78;;;2.98;100.00
15308;BME280;7755;52.208;6.964;2023-01-29T14:56:59;101926.81;;;2.99;100.00
15308;BME280;7755;52.208;6.964;2023-01-29T15:01:11;101935.06;;;3.06;100.00
15308;BME280;7755;52.208;6.964;2023-01-29T15:05:20;101910.72;;;3.07;100.00
15308;BME280;7755;52.208;6.964;2023-01-29T15:09:31;101904.16;;;3.10;100.00
15308;BME280;7755;52.208;6.964;2023-01-29T15:13:43;101906.69;;;3.11;100.00
15308;BME280;7755;52.208;6.964;2023-01-29T15:17:52;101915.25;;;3.07;100.00
15308;BME280;7755;52.208;6.964;2023-01-29T15:22:07;101900.13;;;3.06;100.00
15308;BME280;7755;52.208;6.964;2023-01-29T15:26:16;101905.84;;;3.11;100.00
15308;BME280;7755;52.208;6.964;2023-01-29T15:30:22;101892.06;;;3.06;100.00
15308;BME280;7755;52.208;6.964;2023-01-29T15:34:27;101891.06;;;3.07;100.00
15308;BME280;7755;52.208;6.964;2023-01-29T15:38:32;101892.91;;;3.06;100.00
15308;BME280;7755;52.208;6.964;2023-01-29T15:42:45;101884.31;;;3.03;100.00
15308;BME280;7755;52.208;6.964;2023-01-29T15:46:51;101868.38;;;3.01;100.00
15308;BME280;7755;52.208;6.964;2023-01-29T15:50:56;101874.22;;;2.96;100.00
15308;BME280;7755;52.208;6.964;2023-01-29T15:55:04;101865.66;;;2.93;100.00
15308;BME280;7755;52.208;6.964;2023-01-29T15:59:15;101851.53;;;2.91;100.00
15308;BME280;7755;52.208;6.964;2023-01-29T16:03:21;101845.19;;;2.92;100.00
15308;BME280;7755;52.208;6.964;2023-01-29T16:07:26;101849.56;;;2.93;100.00
15308;BME280;7755;52.208;6.964;2023-01-29T16:11:30;101846.16;;;2.91;100.00
15308;BME280;7755;52.208;6.964;2023-01-29T16:15:36;101839.28;;;2.88;100.00
15308;BME280;7755;52.208;6.964;2023-01-29T16:19:40;101839.13;;;2.90;100.00
15308;BME280;7755;52.208;6.964;2023-01-29T16:23:47;101840.78;;;2.91;100.00
15308;BME280;7755;52.208;6.964;2023-01-29T16:27:52;101837.25;;;2.90;100.00
15308;BME280;7755;52.208;6.964;2023-01-29T16:31:56;101850.69;;;2.90;100.00
15308;BME280;7755;52.208;6.964;2023-01-29T16:36:07;101834.44;;;2.92;100.00
15308;BME280;7755;52.208;6.964;2023-01-29T16:40:20;101824.34;;;2.86;100.00
15308;BME280;7755;52.208;6.964;2023-01-29T16:44:37;101821.97;;;2.91;100.00
15308;BME280;7755;52.208;6.964;2023-01-29T16:48:41;101819.31;;;2.91;100.00
15308;BME280;7755;52.208;6.964;2023-01-29T16:52:54;101836.78;;;2.95;100.00
15308;BME280;7755;52.208;6.964;2023-01-29T16:56:59;101829.41;;;2.97;100.00
15308;BME280;7755;52.208;6.964;2023-01-29T17:01:06;101806.06;;;2.97;100.00
15308;BME280;7755;52.208;6.964;2023-01-29T17:05:18;101801.72;;;3.05;100.00
15308;BME280;7755;52.208;6.964;2023-01-29T17:09:24;101795.00;;;3.00;100.00
15308;BME280;7755;52.208;6.964;2023-01-29T17:13:35;101798.03;;;3.06;100.00
15308;BME280;7755;52.208;6.964;2023-01-29T17:17:41;101799.91;;;3.05;100.00
15308;BME280;7755;52.208;6.964;2023-01-29T17:21:45;101791.84;;;3.05;100.00
15308;BME280;7755;52.208;6.964;2023-01-29T17:25:48;101791.66;;;3.07;100.00
15308;BME280;7755;52.208;6.964;2023-01-29T17:29:52;101789.16;;;3.05;100.00
15308;BME280;7755;52.208;6.964;2023-01-29T17:33:57;101783.59;;;3.07;100.00
15308;BME280;7755;52.208;6.964;2023-01-29T17:38:00;101769.00;;;3.09;100.00
15308;BME280;7755;52.208;6.964;2023-01-29T17:42:03;101761.94;;;3.08;100.00
15308;BME280;7755;52.208;6.964;2023-01-29T17:46:10;101776.56;;;3.06;100.00
15308;BME280;7755;52.208;6.964;2023-01-29T17:50:20;101775.38;;;3.08;100.00
15308;BME280;7755;52.208;6.964;2023-01-29T17:54:24;101767.13;;;3.10;100.00
15308;BME280;7755;52.208;6.964;2023-01-29T17:58:28;101763.97;;;3.06;100.00
15308;BME280;7755;52.208;6.964;2023-01-29T18:02:31;101761.28;;;3.06;100.00
15308;BME280;7755;52.208;6.964;2023-01-29T18:06:36;101750.00;;;3.03;100.00
15308;BME280;7755;52.208;6.964;2023-01-29T18:10:40;101747.50;;;3.01;100.00
15308;BME280;7755;52.208;6.964;2023-01-29T18:14:44;101733.72;;;2.96;100.00
15308;BME280;7755;52.208;6.964;2023-01-29T18:18:47;101734.38;;;2.98;100.00
15308;BME280;7755;52.208;6.964;2023-01-29T18:22:52;101724.97;;;2.94;100.00
15308;BME280;7755;52.208;6.964;2023-01-29T18:26:56;101724.81;;;2.95;100.00
15308;BME280;7755;52.208;6.964;2023-01-29T18:31:00;101714.25;;;2.94;100.00
15308;BME280;7755;52.208;6.964;2023-01-29T18:35:05;101711.19;;;2.89;100.00
15308;BME280;7755;52.208;6.964;2023-01-29T18:39:10;101705.84;;;2.89;100.00
15308;BME280;7755;52.208;6.964;2023-01-29T18:43:13;101707.50;;;2.90;100.00
15308;BME280;7755;52.208;6.964;2023-01-29T18:47:26;101696.09;;;2.88;100.00
15308;BME280;7755;52.208;6.964;2023-01-29T18:51:30;101690.91;;;2.86;100.00
15308;BME280;7755;52.208;6.964;2023-01-29T18:55:35;101693.41;;;2.88;100.00
15308;BME280;7755;52.208;6.964;2023-01-29T18:59:38;101691.91;;;2.85;100.00
15308;BME280;7755;52.208;6.964;2023-01-29T19:03:41;101663.03;;;2.87;100.00
15308;BME280;7755;52.208;6.964;2023-01-29T19:07:44;101650.63;;;2.86;100.00
15308;BME280;7755;52.208;6.964;2023-01-29T19:11:49;101636.66;;;2.91;100.00
15308;BME280;7755;52.208;6.964;2023-01-29T19:15:52;101639.34;;;2.83;100.00
15308;BME280;7755;52.208;6.964;2023-01-29T19:19:56;101643.22;;;2.88;100.00
15308;BME280;7755;52.208;6.964;2023-01-29T19:24:03;101627.94;;;2.89;100.00
15308;BME280;7755;52.208;6.964;2023-01-29T19:28:09;101617.53;;;2.94;100.00
15308;BME280;7755;52.208;6.964;2023-01-29T19:32:12;101605.63;;;2.88;100.00
15308;BME280;7755;52.208;6.964;2023-01-29T19:36:16;101597.38;;;2.90;100.00
15308;BME280;7755;52.208;6.964;2023-01-29T19:40:20;101588.19;;;2.92;100.00
15308;BME280;7755;52.208;6.964;2023-01-29T19:44:26;101587.47;;;2.90;100.00
15308;BME280;7755;52.208;6.964;2023-01-29T19:48:30;101576.59;;;2.92;100.00
15308;BME280;7755;52.208;6.964;2023-01-29T19:52:34;101563.16;;;2.92;100.00
15308;BME280;7755;52.208;6.964;2023-01-29T19:56:53;101567.34;;;2.94;100.00
15308;BME280;7755;52.208;6.964;2023-01-29T20:00:58;101583.81;;;2.99;100.00
15308;BME280;7755;52.208;6.964;2023-01-29T20:05:02;101564.00;;;3.00;100.00
15308;BME280;7755;52.208;6.964;2023-01-29T20:09:08;101557.25;;;3.05;100.00
15308;BME280;7755;52.208;6.964;2023-01-29T20:13:12;101572.03;;;3.09;100.00
15308;BME280;7755;52.208;6.964;2023-01-29T20:17:17;101533.91;;;3.13;100.00
15308;BME280;7755;52.208;6.964;2023-01-29T20:21:20;101535.59;;;3.14;100.00
15308;BME280;7755;52.208;6.964;2023-01-29T20:25:24;101538.94;;;3.16;100.00
15308;BME280;7755;52.208;6.964;2023-01-29T20:29:27;101540.94;;;3.22;100.00
15308;BME280;7755;52.208;6.964;2023-01-29T20:33:33;101535.72;;;3.29;100.00
15308;BME280;7755;52.208;6.964;2023-01-29T20:37:39;101518.56;;;3.30;100.00
15308;BME280;7755;52.208;6.964;2023-01-29T20:41:42;101518.25;;;3.33;100.00
15308;BME280;7755;52.208;6.964;2023-01-29T20:45:46;101511.66;;;3.36;100.00
15308;BME280;7755;52.208;6.964;2023-01-29T20:49:50;101534.00;;;3.36;100.00
15308;BME280;7755;52.208;6.964;2023-01-29T20:53:53;101535.66;;;3.45;100.00
15308;BME280;7755;52.208;6.964;2023-01-29T20:57:57;101526.75;;;3.45;100.00
15308;BME280;7755;52.208;6.964;2023-01-29T21:02:08;101517.00;;;3.44;100.00
15308;BME280;7755;52.208;6.964;2023-01-29T21:06:15;101532.97;;;3.45;100.00
15308;BME280;7755;52.208;6.964;2023-01-29T21:10:18;101525.41;;;3.49;100.00
15308;BME280;7755;52.208;6.964;2023-01-29T21:14:22;101519.66;;;3.52;100.00
15308;BME280;7755;52.208;6.964;2023-01-29T21:18:27;101519.00;;;3.50;100.00
15308;BME280;7755;52.208;6.964;2023-01-29T21:22:31;101510.25;;;3.56;100.00
15308;BME280;7755;52.208;6.964;2023-01-29T21:26:34;101517.66;;;3.54;100.00
15308;BME280;7755;52.208;6.964;2023-01-29T21:30:40;101514.59;;;3.57;100.00
15308;BME280;7755;52.208;6.964;2023-01-29T21:34:44;101503.66;;;3.59;100.00
15308;BME280;7755;52.208;6.964;2023-01-29T21:38:48;101514.28;;;3.60;100.00
15308;BME280;7755;52.208;6.964;2023-01-29T21:42:52;101516.13;;;3.60;100.00
15308;BME280;7755;52.208;6.964;2023-01-29T21:47:27;101493.78;;;3.59;100.00
15308;BME280;7755;52.208;6.964;2023-01-29T21:51:30;101491.56;;;3.63;100.00
15308;BME280;7755;52.208;6.964;2023-01-29T21:55:35;101505.84;;;3.63;100.00
15308;BME280;7755;52.208;6.964;2023-01-29T21:59:39;101501.13;;;3.65;100.00
15308;BME280;7755;52.208;6.964;2023-01-29T22:03:42;101509.88;;;3.67;100.00
15308;BME280;7755;52.208;6.964;2023-01-29T22:07:50;101491.03;;;3.67;100.00
15308;BME280;7755;52.208;6.964;2023-01-29T22:11:55;101480.94;;;3.69;100.00